Flight Track Log - Related Links

Times and Time Zones

All times are in EDT time to prevent confusion due to time zone crossing. See the MSR2491 flight status page for this flight to view local times or setup timezone preferences in your user account.

Time Position Orientation Groundspeed Altitude Reporting Facility
EDT Latitude Longitude Course Direction KTS MPH feet Rate Location/Type
Fri 07:13:16 PM 26.2700 50.6310 123° Southeast 12 14  Level FlightAware ADS-B
Fri 07:13:26 PM 26.2700 50.6320 90° East 14 16 110 Level FlightAware ADS-B
Fri 07:13:57 PM 26.2680 50.6340 138° Southeast 21 24 115 Level FlightAware ADS-B
Fri 07:15:16 PM 26.2630 50.6430 122° Southeast 26 30 130 Level FlightAware ADS-B
Fri 07:15:44 PM 26.2620 50.6460 110° East 26 30 197 Level FlightAware ADS-B
Fri 07:16:47 PM 26.2610 50.6500 106° East 5 6 242 Level FlightAware ADS-B
Fri 07:17:40 PM 26.2690 50.6370 304° West 145 167 492 Level FlightAware ADS-B
Fri 07:17:48 PM 26.2720 50.6310 299° West 145 167 500 3,081 Climbing FlightAware ADS-B
Fri 07:18:17 PM 26.2850 50.6100 305° West 157 181 1,900 1,474 Climbing FlightAware ADS-B
Fri 07:18:45 PM 26.2930 50.5930 298° West 157 181 1,900 1,485 Level FlightAware ADS-B
Fri 07:19:58 PM 26.3120 50.5170 286° West 197 227 4,400 1,776 Climbing FlightAware ADS-B
Fri 07:20:23 PM 26.3150 50.4770 275° West 294 338 4,800 471 Climbing FlightAware ADS-B
Fri 07:20:49 PM 26.3160 50.4430 272° West 294 338 4,800 2,066 Level FlightAware ADS-B
Fri 07:21:24 PM 26.3260 50.3800 280° West 328 377 6,900 3,200 Climbing FlightAware ADS-B
Fri 07:21:49 PM 26.3320 50.3380 279° West 331 381 8,000 1,269 Climbing FlightAware ADS-B
Fri 07:22:16 PM 26.3370 50.2990 278° West 331 381 8,000 2,400 Level FlightAware ADS-B
Fri 07:22:54 PM 26.3490 50.2260 280° West 343 395 10,600 3,000 Climbing FlightAware ADS-B
Fri 07:24:04 PM 26.3700 50.0930 280° West 365 420 13,400 1,869 Climbing FlightAware ADS-B
Fri 07:24:56 PM 26.3810 50.0070 278° West 372 428 14,400 2,200 Climbing FlightAware ADS-B
Fri 07:25:34 PM 26.3950 49.9220 280° West 398 458 16,700 1,792 Climbing FlightAware ADS-B
Fri 07:26:13 PM 26.4050 49.8550 279° West 398 458 16,700 184 Level FlightAware ADS-B
Fri 07:26:54 PM 26.4200 49.7530 279° West 19,900 185 Climbing FlightAware ADS-B
Fri 07:29:00 PM 26.4870 49.5099 287° West  Level Estimated
Fri 07:30:00 PM 26.5188 49.3941 287° West  Level Estimated
Fri 07:31:00 PM 26.5505 49.2782 287° West  Level Estimated
Fri 07:32:00 PM 26.5821 49.1622 287° West  Level Estimated
Fri 07:33:00 PM 26.6135 49.0462 287° West  Level Estimated
Fri 07:34:00 PM 26.6449 48.9300 287° West  Level Estimated
Fri 07:35:00 PM 26.6762 48.8139 287° West  Level Estimated
Fri 07:36:00 PM 26.7074 48.6977 287° West  Level Estimated
Fri 07:37:00 PM 26.7385 48.5813 287° West  Level Estimated
Fri 07:38:00 PM 26.7696 48.4650 287° West  Level Estimated
Fri 07:39:00 PM 26.8005 48.3486 287° West  Level Estimated
Fri 07:40:00 PM 26.8313 48.2321 287° West  Level Estimated
Fri 07:41:00 PM 26.8620 48.1155 286° West  Level Estimated
Fri 07:42:00 PM 26.8927 47.9989 286° West  Level Estimated
Fri 07:43:00 PM 26.9232 47.8822 286° West  Level Estimated
Fri 07:44:00 PM 26.9536 47.7655 286° West  Level Estimated
Fri 07:45:00 PM 26.9840 47.6487 286° West  Level Estimated
Fri 07:46:00 PM 27.0142 47.5318 286° West  Level Estimated
Fri 07:47:00 PM 27.0444 47.4149 286° West  Level Estimated
Fri 07:48:00 PM 27.0744 47.2979 286° West  Level Estimated
Fri 07:49:00 PM 27.1044 47.1809 286° West  Level Estimated
Fri 07:50:00 PM 27.1343 47.0638 286° West  Level Estimated
Fri 07:51:00 PM 27.1640 46.9466 286° West  Level Estimated
Fri 07:52:00 PM 27.1937 46.8293 286° West  Level Estimated
Fri 07:53:00 PM 27.2233 46.7120 286° West  Level Estimated
Fri 07:54:00 PM 27.2528 46.5947 286° West  Level Estimated
Fri 07:55:00 PM 27.2821 46.4772 286° West  Level Estimated
Fri 07:56:00 PM 27.3114 46.3597 286° West  Level Estimated
Fri 07:57:00 PM 27.3406 46.2422 286° West  Level Estimated
Fri 07:58:00 PM 27.3697 46.1246 286° West  Level Estimated
Fri 07:59:00 PM 27.3986 46.0069 286° West  Level Estimated
Fri 08:00:00 PM 27.4275 45.8892 285° West  Level Estimated
Fri 08:01:00 PM 27.4563 45.7714 285° West  Level Estimated
Fri 08:02:00 PM 27.4850 45.6535 285° West  Level Estimated
Fri 08:03:00 PM 27.5136 45.5356 285° West  Level Estimated
Fri 08:04:00 PM 27.5420 45.4176 285° West  Level Estimated
Fri 08:05:00 PM 27.5704 45.2996 285° West  Level Estimated
Fri 08:06:00 PM 27.5987 45.1815 285° West  Level Estimated
Fri 08:07:00 PM 27.6269 45.0633 285° West  Level Estimated
Fri 08:08:00 PM 27.6550 44.9451 285° West  Level Estimated
Fri 08:09:00 PM 27.6830 44.8268 285° West  Level Estimated
Fri 08:10:00 PM 27.7109 44.7085 285° West  Level Estimated
Fri 08:11:00 PM 27.7387 44.5900 285° West  Level Estimated
Fri 08:12:00 PM 27.7663 44.4716 285° West  Level Estimated
Fri 08:13:00 PM 27.7939 44.3531 285° West  Level Estimated
Fri 08:14:00 PM 27.8214 44.2345 285° West  Level Estimated
Fri 08:15:00 PM 27.8488 44.1158 285° West  Level Estimated
Fri 08:16:00 PM 27.8761 43.9971 285° West  Level Estimated
Fri 08:17:00 PM 27.9032 43.8783 285° West  Level Estimated
Fri 08:18:00 PM 27.9303 43.7595 284° West  Level Estimated
Fri 08:19:00 PM 27.9573 43.6406 284° West  Level Estimated
Fri 08:20:00 PM 27.9841 43.5217 284° West  Level Estimated
Fri 08:21:00 PM 28.0109 43.4027 284° West  Level Estimated
Fri 08:22:00 PM 28.0376 43.2836 284° West  Level Estimated
Fri 08:23:00 PM 28.0641 43.1645 284° West  Level Estimated
Fri 08:24:00 PM 28.0906 43.0453 284° West  Level Estimated
Fri 08:25:00 PM 28.1170 42.9261 284° West  Level Estimated
Fri 08:26:00 PM 28.1432 42.8068 284° West  Level Estimated
Fri 08:27:00 PM 28.1694 42.6874 284° West  Level Estimated
Fri 08:28:00 PM 28.1954 42.5680 284° West  Level Estimated
Fri 08:29:00 PM 28.2214 42.4485 284° West  Level Estimated
Fri 08:30:00 PM 28.2472 42.3290 284° West  Level Estimated
Fri 08:31:00 PM 28.2729 42.2094 284° West  Level Estimated
Fri 08:32:00 PM 28.2986 42.0898 284° West  Level Estimated
Fri 08:33:00 PM 28.3241 41.9701 284° West  Level Estimated
Fri 08:34:00 PM 28.3495 41.8503 284° West  Level Estimated
Fri 08:35:00 PM 28.3748 41.7305 284° West  Level Estimated
Fri 08:36:00 PM 28.4000 41.6106 283° West  Level Estimated
Fri 08:37:00 PM 28.4252 41.4907 283° West  Level Estimated
Fri 08:38:00 PM 28.4502 41.3707 283° West  Level Estimated
Fri 08:39:00 PM 28.4751 41.2506 283° West  Level Estimated
Fri 08:40:00 PM 28.4998 41.1305 283° West  Level Estimated
Fri 08:41:00 PM 28.5245 41.0104 283° West  Level Estimated
Fri 08:42:00 PM 28.5491 40.8902 283° West  Level Estimated
Fri 08:43:00 PM 28.5736 40.7699 283° West  Level Estimated
Fri 08:44:00 PM 28.5980 40.6496 283° West  Level Estimated
Fri 08:45:00 PM 28.6222 40.5292 283° West  Level Estimated
Fri 08:46:00 PM 28.6464 40.4087 283° West  Level Estimated
Fri 08:47:00 PM 28.6704 40.2882 283° West  Level Estimated
Fri 08:48:00 PM 28.6944 40.1677 283° West  Level Estimated
Fri 08:49:00 PM 28.7182 40.0471 283° West  Level Estimated
Fri 08:50:00 PM 28.7419 39.9264 283° West  Level Estimated
Fri 08:51:00 PM 28.7656 39.8057 283° West  Level Estimated
Fri 08:52:00 PM 28.7891 39.6850 283° West  Level Estimated
Fri 08:53:00 PM 28.8125 39.5641 282° West  Level Estimated
Fri 08:54:00 PM 28.8358 39.4433 282° West  Level Estimated
Fri 08:55:00 PM 28.8590 39.3223 282° West  Level Estimated
Fri 08:56:00 PM 28.8820 39.2014 282° West  Level Estimated
Fri 08:57:00 PM 28.9050 39.0803 282° West  Level Estimated
Fri 08:58:00 PM 28.9279 38.9592 282° West  Level Estimated
Fri 08:59:00 PM 28.9507 38.8381 282° West  Level Estimated
Fri 08:59:30 PM 28.8440 36.1760 282° West 471 542 34,000  Level FlightAware ADS-B
Fri 09:00:00 PM 28.9733 38.7169 282° West  Level Estimated
Fri 09:00:12 PM 28.8560 36.0900 279° West 471 542 34,000  Level FlightAware ADS-B
Fri 09:00:58 PM 28.8690 35.9940 279° West 471 542 34,000  Level FlightAware ADS-B
Fri 09:01:34 PM 28.8800 35.9190 280° West 471 542 34,000  Level FlightAware ADS-B
Fri 09:02:22 PM 28.8930 35.8180 278° West 471 542 34,000  Level FlightAware ADS-B
Fri 09:02:58 PM 28.9040 35.7430 280° West 471 542 34,000  Level FlightAware ADS-B
Fri 09:03:46 PM 28.9180 35.6430 279° West 471 542 34,000  Level FlightAware ADS-B
Fri 09:04:22 PM 28.9280 35.5670 279° West 471 542 34,000  Level FlightAware ADS-B
Fri 09:05:22 PM 28.9450 35.4420 279° West 471 542 34,000  Level FlightAware ADS-B
Fri 09:05:58 PM 28.9560 35.3670 280° West 471 542 34,000  Level FlightAware ADS-B
Fri 09:06:44 PM 28.9690 35.2710 279° West 471 542 34,000  Level FlightAware ADS-B
Fri 09:07:44 PM 28.9870 35.1450 279° West 471 542 34,000  Level FlightAware ADS-B
Fri 09:08:20 PM 28.9970 35.0700 279° West 471 542 34,000  Level FlightAware ADS-B
Fri 09:09:08 PM 29.0110 34.9690 279° West 471 542 34,000  Level FlightAware ADS-B
Fri 09:11:00 PM 29.0820 34.7522 291° West  Level Estimated
Fri 09:12:00 PM 29.1199 34.6359 290° West  Level Estimated
Fri 09:13:00 PM 29.1577 34.5196 290° West  Level Estimated
Fri 09:14:00 PM 29.1954 34.4031 290° West  Level Estimated
Fri 09:15:00 PM 29.2330 34.2866 290° West  Level Estimated
Fri 09:16:00 PM 29.2705 34.1700 290° West  Level Estimated
Fri 09:17:00 PM 29.3079 34.0533 290° West  Level Estimated
Fri 09:18:00 PM 29.3452 33.9365 290° West  Level Estimated
Fri 09:19:00 PM 29.3824 33.8196 290° West  Level Estimated
Fri 09:20:00 PM 29.4195 33.7027 290° West  Level Estimated
Fri 09:21:00 PM 29.4565 33.5856 290° West  Level Estimated
Fri 09:22:00 PM 29.4934 33.4685 290° West  Level Estimated
Fri 09:23:00 PM 29.5302 33.3513 290° West  Level Estimated
Fri 09:24:00 PM 29.5668 33.2340 290° West  Level Estimated
Fri 09:25:00 PM 29.6034 33.1166 290° West  Level Estimated
Fri 09:26:00 PM 29.6399 32.9992 290° West  Level Estimated
Fri 09:27:00 PM 29.6763 32.8816 290° West  Level Estimated
Fri 09:28:00 PM 29.7125 32.7640 290° West  Level Estimated
Fri 09:29:00 PM 29.7487 32.6463 290° West  Level Estimated
Fri 09:30:00 PM 29.7848 32.5285 289° West  Level Estimated
Fri 09:31:00 PM 29.8207 32.4106 289° West  Level Estimated
Fri 09:32:00 PM 29.8566 32.2926 289° West  Level Estimated
Fri 09:33:00 PM 29.8923 32.1745 289° West  Level Estimated
Fri 09:34:00 PM 29.9279 32.0564 289° West  Level Estimated
Fri 09:35:00 PM 29.9635 31.9382 289° West  Level Estimated
Fri 09:36:00 PM 29.9989 31.8199 289° West  Level Estimated
Fri 09:37:00 PM 30.0342 31.7015 289° West  Level Estimated
Fri 09:38:00 PM 30.0695 31.5830 289° West  Level Estimated
Fri 09:39:00 PM 30.1046 31.4644 289° West  Level Estimated
Fri 09:40:00 PM 30.1219 31.4056 289° West  Level Estimated
Fri 09:41:00 PM 30.1219 31.4056 319° Northwest  Level Estimated
Fri 09:42:00 PM 30.1219 31.4056 319° Northwest  Level Estimated
Fri 09:43:00 PM 30.1219 31.4056 319° Northwest  Level Estimated
Fri 09:44:00 PM 30.1219 31.4056 319° Northwest  Level Estimated
Fri 09:45:00 PM 30.1219 31.4056 319° Northwest  Level Estimated
Fri 09:46:00 PM 30.1219 31.4056 319° Northwest  Level Estimated
Fri 09:47:00 PM 30.1219 31.4056 319° Northwest  Level Estimated
Fri 09:48:00 PM 30.1219 31.4056 319° Northwest  Level Estimated
Fri 09:49:00 PM 30.1219 31.4056 319° Northwest  Level Estimated
Fri 09:50:00 PM 30.1219 31.4056 319° Northwest  Level Estimated
Fri 09:51:00 PM 30.1219 31.4056 319° Northwest  Level Estimated
Fri 09:52:00 PM 30.1219 31.4056 319° Northwest  Level Estimated
Fri 09:53:00 PM 30.1219 31.4056 319° Northwest  Level Estimated
Fri 09:54:00 PM 30.1219 31.4056 319° Northwest  Level Estimated
Fri 09:55:00 PM 30.1219 31.4056 319° Northwest  Level Estimated
Fri 09:56:00 PM 30.1219 31.4056 319° Northwest  Level Estimated
Fri 09:57:00 PM 30.1219 31.4056 319° Northwest  Level Estimated
Fri 09:58:00 PM 30.1219 31.4056 319° Northwest  Level Estimated
Fri 09:59:00 PM 30.1219 31.4056 319° Northwest  Level Estimated
Fri 10:00:00 PM 30.1219 31.4056 319° Northwest  Level Estimated
Fri 10:01:00 PM 30.1219 31.4056 319° Northwest  Level Estimated
Fri 10:02:00 PM 30.1219 31.4056 319° Northwest  Level Estimated
Fri 10:03:00 PM 30.1219 31.4056 319° Northwest  Level Estimated
Fri 10:04:00 PM 30.1219 31.4056 319° Northwest  Level Estimated
Fri 10:05:00 PM 30.1219 31.4056 319° Northwest  Level Estimated
Fri 10:06:00 PM 30.1219 31.4056 319° Northwest  Level Estimated
Fri 10:07:00 PM 30.1219 31.4056 319° Northwest  Level Estimated
Fri 10:08:00 PM 30.1219 31.4056 319° Northwest  Level Estimated
Fri 10:09:00 PM 30.1219 31.4056 319° Northwest  Level Estimated

Login

Don't have an account? Register now (free) for customized features, flight alerts, and more!